sensor_id;sensor_type;location;lat;lon;timestamp;temperature;humidity
55004;DHT22;40900;52.710;6.438;2023-01-19T00:02:20;2.30;99.90
55004;DHT22;40900;52.710;6.438;2023-01-19T00:04:45;2.40;99.90
55004;DHT22;40900;52.710;6.438;2023-01-19T00:07:11;2.30;99.90
55004;DHT22;40900;52.710;6.438;2023-01-19T00:09:37;2.30;99.90
55004;DHT22;40900;52.710;6.438;2023-01-19T00:12:03;2.30;99.90
55004;DHT22;40900;52.710;6.438;2023-01-19T00:14:29;2.20;99.90
55004;DHT22;40900;52.710;6.438;2023-01-19T00:16:55;2.20;99.90
55004;DHT22;40900;52.710;6.438;2023-01-19T00:19:21;2.20;99.90
55004;DHT22;40900;52.710;6.438;2023-01-19T00:21:46;2.10;99.90
55004;DHT22;40900;52.710;6.438;2023-01-19T00:24:12;2.10;99.90
55004;DHT22;40900;52.710;6.438;2023-01-19T00:26:39;2.10;99.90
55004;DHT22;40900;52.710;6.438;2023-01-19T00:29:09;2.00;99.90
55004;DHT22;40900;52.710;6.438;2023-01-19T00:31:35;1.90;99.90
55004;DHT22;40900;52.710;6.438;2023-01-19T00:34:01;2.00;99.90
55004;DHT22;40900;52.710;6.438;2023-01-19T00:36:27;1.90;99.90
55004;DHT22;40900;52.710;6.438;2023-01-19T00:38:52;1.90;99.90
55004;DHT22;40900;52.710;6.438;2023-01-19T00:41:18;1.80;99.90
55004;DHT22;40900;52.710;6.438;2023-01-19T00:44:04;1.80;99.90
55004;DHT22;40900;52.710;6.438;2023-01-19T00:46:30;1.80;99.90
55004;DHT22;40900;52.710;6.438;2023-01-19T00:48:56;1.70;99.90
55004;DHT22;40900;52.710;6.438;2023-01-19T00:51:21;1.70;99.90
55004;DHT22;40900;52.710;6.438;2023-01-19T00:53:47;1.60;99.90
55004;DHT22;40900;52.710;6.438;2023-01-19T00:56:13;1.70;99.90
55004;DHT22;40900;52.710;6.438;2023-01-19T00:58:38;1.60;99.90
55004;DHT22;40900;52.710;6.438;2023-01-19T01:01:04;1.60;99.90
55004;DHT22;40900;52.710;6.438;2023-01-19T01:03:31;1.50;99.90
55004;DHT22;40900;52.710;6.438;2023-01-19T01:05:56;1.60;99.90
55004;DHT22;40900;52.710;6.438;2023-01-19T01:08:22;1.50;99.90
55004;DHT22;40900;52.710;6.438;2023-01-19T01:10:49;1.50;99.90
55004;DHT22;40900;52.710;6.438;2023-01-19T01:13:15;1.50;99.90
55004;DHT22;40900;52.710;6.438;2023-01-19T01:15:41;1.50;99.90
55004;DHT22;40900;52.710;6.438;2023-01-19T01:18:07;1.50;99.90
55004;DHT22;40900;52.710;6.438;2023-01-19T01:20:34;1.60;99.90
55004;DHT22;40900;52.710;6.438;2023-01-19T01:23:02;1.60;99.90
55004;DHT22;40900;52.710;6.438;2023-01-19T01:25:28;1.60;99.90
55004;DHT22;40900;52.710;6.438;2023-01-19T01:27:55;1.50;99.90
55004;DHT22;40900;52.710;6.438;2023-01-19T01:30:21;1.60;99.90
55004;DHT22;40900;52.710;6.438;2023-01-19T01:32:47;1.50;99.90
55004;DHT22;40900;52.710;6.438;2023-01-19T01:35:14;1.60;99.90
55004;DHT22;40900;52.710;6.438;2023-01-19T01:37:40;1.60;99.90
55004;DHT22;40900;52.710;6.438;2023-01-19T01:40:07;1.60;99.90
55004;DHT22;40900;52.710;6.438;2023-01-19T01:42:33;1.60;99.90
55004;DHT22;40900;52.710;6.438;2023-01-19T01:45:02;1.60;99.90
55004;DHT22;40900;52.710;6.438;2023-01-19T01:47:35;1.70;99.90
55004;DHT22;40900;52.710;6.438;2023-01-19T01:52:35;1.60;99.90
55004;DHT22;40900;52.710;6.438;2023-01-19T01:55:04;1.60;99.90
55004;DHT22;40900;52.710;6.438;2023-01-19T01:57:34;1.70;99.90
55004;DHT22;40900;52.710;6.438;2023-01-19T02:00:02;1.60;99.90
55004;DHT22;40900;52.710;6.438;2023-01-19T02:02:29;1.60;99.90
55004;DHT22;40900;52.710;6.438;2023-01-19T02:05:28;1.70;99.90
55004;DHT22;40900;52.710;6.438;2023-01-19T02:08:24;1.60;99.90
55004;DHT22;40900;52.710;6.438;2023-01-19T02:11:10;1.70;99.90
55004;DHT22;40900;52.710;6.438;2023-01-19T02:13:54;1.70;99.90
55004;DHT22;40900;52.710;6.438;2023-01-19T02:16:20;1.70;99.90
55004;DHT22;40900;52.710;6.438;2023-01-19T02:18:46;1.70;99.90
55004;DHT22;40900;52.710;6.438;2023-01-19T02:21:34;1.80;99.90
55004;DHT22;40900;52.710;6.438;2023-01-19T02:24:00;1.80;99.90
55004;DHT22;40900;52.710;6.438;2023-01-19T02:26:40;1.70;99.90
55004;DHT22;40900;52.710;6.438;2023-01-19T02:29:09;1.80;99.90
55004;DHT22;40900;52.710;6.438;2023-01-19T02:31:36;1.80;99.90
55004;DHT22;40900;52.710;6.438;2023-01-19T02:34:05;1.90;99.90
55004;DHT22;40900;52.710;6.438;2023-01-19T02:36:39;1.90;99.90
55004;DHT22;40900;52.710;6.438;2023-01-19T02:39:06;1.80;99.90
55004;DHT22;40900;52.710;6.438;2023-01-19T02:41:38;1.90;99.90
55004;DHT22;40900;52.710;6.438;2023-01-19T02:44:06;1.90;99.90
55004;DHT22;40900;52.710;6.438;2023-01-19T02:46:32;1.90;99.90
55004;DHT22;40900;52.710;6.438;2023-01-19T02:48:59;1.80;99.90
55004;DHT22;40900;52.710;6.438;2023-01-19T02:51:27;1.80;99.90
55004;DHT22;40900;52.710;6.438;2023-01-19T03:02:52;1.80;99.90
55004;DHT22;40900;52.710;6.438;2023-01-19T03:11:00;1.60;99.90
55004;DHT22;40900;52.710;6.438;2023-01-19T03:16:05;1.60;99.90
55004;DHT22;40900;52.710;6.438;2023-01-19T03:18:37;1.70;99.90
55004;DHT22;40900;52.710;6.438;2023-01-19T03:21:05;1.60;99.90
55004;DHT22;40900;52.710;6.438;2023-01-19T03:23:33;1.60;99.90
55004;DHT22;40900;52.710;6.438;2023-01-19T03:26:00;1.60;99.90
55004;DHT22;40900;52.710;6.438;2023-01-19T03:28:28;1.60;99.90
55004;DHT22;40900;52.710;6.438;2023-01-19T03:31:16;1.70;99.90
55004;DHT22;40900;52.710;6.438;2023-01-19T03:33:49;1.60;99.90
55004;DHT22;40900;52.710;6.438;2023-01-19T03:36:21;1.60;99.90
55004;DHT22;40900;52.710;6.438;2023-01-19T03:38:49;1.60;99.90
55004;DHT22;40900;52.710;6.438;2023-01-19T03:41:17;1.60;99.90
55004;DHT22;40900;52.710;6.438;2023-01-19T03:43:45;1.60;99.90
55004;DHT22;40900;52.710;6.438;2023-01-19T03:46:12;1.60;99.90
55004;DHT22;40900;52.710;6.438;2023-01-19T03:48:42;1.70;99.90
55004;DHT22;40900;52.710;6.438;2023-01-19T03:51:09;1.50;99.90
55004;DHT22;40900;52.710;6.438;2023-01-19T03:53:35;1.50;99.90
55004;DHT22;40900;52.710;6.438;2023-01-19T03:56:01;1.50;99.90
55004;DHT22;40900;52.710;6.438;2023-01-19T03:58:27;1.50;99.90
55004;DHT22;40900;52.710;6.438;2023-01-19T04:00:53;1.50;99.90
55004;DHT22;40900;52.710;6.438;2023-01-19T04:03:18;1.40;99.90
55004;DHT22;40900;52.710;6.438;2023-01-19T04:05:45;1.50;99.90
55004;DHT22;40900;52.710;6.438;2023-01-19T04:08:11;1.50;99.90
55004;DHT22;40900;52.710;6.438;2023-01-19T04:10:37;1.60;99.90
55004;DHT22;40900;52.710;6.438;2023-01-19T04:13:03;1.50;99.90
55004;DHT22;40900;52.710;6.438;2023-01-19T04:15:30;1.60;99.90
55004;DHT22;40900;52.710;6.438;2023-01-19T04:17:57;1.60;99.90
55004;DHT22;40900;52.710;6.438;2023-01-19T04:20:23;1.60;99.90
55004;DHT22;40900;52.710;6.438;2023-01-19T04:22:51;1.60;99.90
55004;DHT22;40900;52.710;6.438;2023-01-19T04:25:17;1.60;99.90
55004;DHT22;40900;52.710;6.438;2023-01-19T04:27:42;1.70;99.90
55004;DHT22;40900;52.710;6.438;2023-01-19T04:30:09;1.80;99.90
55004;DHT22;40900;52.710;6.438;2023-01-19T04:32:34;1.60;99.90
55004;DHT22;40900;52.710;6.438;2023-01-19T04:35:00;1.60;99.90
55004;DHT22;40900;52.710;6.438;2023-01-19T04:37:26;1.60;99.90
55004;DHT22;40900;52.710;6.438;2023-01-19T04:39:52;1.60;99.90
55004;DHT22;40900;52.710;6.438;2023-01-19T04:42:18;1.70;99.90
55004;DHT22;40900;52.710;6.438;2023-01-19T04:44:44;1.70;99.90
55004;DHT22;40900;52.710;6.438;2023-01-19T04:47:09;1.70;99.90
55004;DHT22;40900;52.710;6.438;2023-01-19T04:49:36;1.80;99.90
55004;DHT22;40900;52.710;6.438;2023-01-19T04:52:05;2.00;99.90
55004;DHT22;40900;52.710;6.438;2023-01-19T04:54:32;2.00;99.90
55004;DHT22;40900;52.710;6.438;2023-01-19T04:56:58;2.00;99.90
55004;DHT22;40900;52.710;6.438;2023-01-19T04:59:23;2.00;99.90
55004;DHT22;40900;52.710;6.438;2023-01-19T05:01:49;2.10;99.90
55004;DHT22;40900;52.710;6.438;2023-01-19T05:04:15;2.20;99.90
55004;DHT22;40900;52.710;6.438;2023-01-19T05:06:40;2.20;99.90
55004;DHT22;40900;52.710;6.438;2023-01-19T05:09:06;2.20;99.90
55004;DHT22;40900;52.710;6.438;2023-01-19T05:11:34;2.30;99.90
55004;DHT22;40900;52.710;6.438;2023-01-19T05:14:00;2.30;99.90
55004;DHT22;40900;52.710;6.438;2023-01-19T05:16:25;2.40;99.90
55004;DHT22;40900;52.710;6.438;2023-01-19T05:18:51;2.50;99.90
55004;DHT22;40900;52.710;6.438;2023-01-19T05:21:17;2.60;99.90
55004;DHT22;40900;52.710;6.438;2023-01-19T05:23:43;2.80;99.90
55004;DHT22;40900;52.710;6.438;2023-01-19T05:26:09;2.80;99.90
55004;DHT22;40900;52.710;6.438;2023-01-19T05:28:35;2.90;99.90
55004;DHT22;40900;52.710;6.438;2023-01-19T05:31:00;2.90;99.90
55004;DHT22;40900;52.710;6.438;2023-01-19T05:33:26;3.00;99.90
55004;DHT22;40900;52.710;6.438;2023-01-19T05:35:52;3.20;99.90
55004;DHT22;40900;52.710;6.438;2023-01-19T05:38:20;3.10;99.90
55004;DHT22;40900;52.710;6.438;2023-01-19T05:40:46;3.20;99.90
55004;DHT22;40900;52.710;6.438;2023-01-19T05:43:13;3.10;99.90
55004;DHT22;40900;52.710;6.438;2023-01-19T05:45:39;3.20;99.90
55004;DHT22;40900;52.710;6.438;2023-01-19T05:48:07;3.20;99.90
55004;DHT22;40900;52.710;6.438;2023-01-19T05:50:33;3.20;99.90
55004;DHT22;40900;52.710;6.438;2023-01-19T05:52:59;3.20;99.90
55004;DHT22;40900;52.710;6.438;2023-01-19T05:55:26;3.20;99.90
55004;DHT22;40900;52.710;6.438;2023-01-19T05:57:51;3.10;99.90
55004;DHT22;40900;52.710;6.438;2023-01-19T06:00:17;3.20;99.90
55004;DHT22;40900;52.710;6.438;2023-01-19T06:02:43;3.10;99.90
55004;DHT22;40900;52.710;6.438;2023-01-19T06:05:11;3.10;99.90
55004;DHT22;40900;52.710;6.438;2023-01-19T06:07:36;3.10;99.90
55004;DHT22;40900;52.710;6.438;2023-01-19T06:10:02;3.00;99.90
55004;DHT22;40900;52.710;6.438;2023-01-19T06:12:28;3.00;99.90
55004;DHT22;40900;52.710;6.438;2023-01-19T06:14:54;3.00;99.90
55004;DHT22;40900;52.710;6.438;2023-01-19T06:17:20;2.90;99.90
55004;DHT22;40900;52.710;6.438;2023-01-19T06:19:45;2.90;99.90
55004;DHT22;40900;52.710;6.438;2023-01-19T06:22:11;2.90;99.90
55004;DHT22;40900;52.710;6.438;2023-01-19T06:24:37;2.80;99.90
55004;DHT22;40900;52.710;6.438;2023-01-19T06:27:03;2.80;99.90
55004;DHT22;40900;52.710;6.438;2023-01-19T06:29:31;3.00;99.90
55004;DHT22;40900;52.710;6.438;2023-01-19T06:31:57;2.70;99.90
55004;DHT22;40900;52.710;6.438;2023-01-19T06:34:22;2.70;99.90
55004;DHT22;40900;52.710;6.438;2023-01-19T06:36:56;2.70;99.90
55004;DHT22;40900;52.710;6.438;2023-01-19T06:39:22;2.60;99.90
55004;DHT22;40900;52.710;6.438;2023-01-19T06:41:48;2.60;99.90
55004;DHT22;40900;52.710;6.438;2023-01-19T06:44:13;2.70;99.90
55004;DHT22;40900;52.710;6.438;2023-01-19T06:46:39;2.60;99.90
55004;DHT22;40900;52.710;6.438;2023-01-19T06:49:05;2.60;99.90
55004;DHT22;40900;52.710;6.438;2023-01-19T06:51:31;2.60;99.90
55004;DHT22;40900;52.710;6.438;2023-01-19T06:53:56;2.60;99.90
55004;DHT22;40900;52.710;6.438;2023-01-19T06:56:22;2.60;99.90
55004;DHT22;40900;52.710;6.438;2023-01-19T06:58:48;2.60;99.90
55004;DHT22;40900;52.710;6.438;2023-01-19T07:01:15;2.60;99.90
55004;DHT22;40900;52.710;6.438;2023-01-19T07:03:41;2.60;99.90
55004;DHT22;40900;52.710;6.438;2023-01-19T07:06:07;2.60;99.90
55004;DHT22;40900;52.710;6.438;2023-01-19T07:08:34;2.60;99.90
55004;DHT22;40900;52.710;6.438;2023-01-19T07:11:05;2.60;99.90
55004;DHT22;40900;52.710;6.438;2023-01-19T07:13:32;2.70;99.90
55004;DHT22;40900;52.710;6.438;2023-01-19T07:16:08;2.60;99.90
55004;DHT22;40900;52.710;6.438;2023-01-19T07:18:35;2.60;99.90
55004;DHT22;40900;52.710;6.438;2023-01-19T07:21:01;2.60;99.90
55004;DHT22;40900;52.710;6.438;2023-01-19T07:23:27;2.60;99.90
55004;DHT22;40900;52.710;6.438;2023-01-19T07:25:59;2.70;99.90
55004;DHT22;40900;52.710;6.438;2023-01-19T07:28:27;2.70;99.90
55004;DHT22;40900;52.710;6.438;2023-01-19T07:30:53;2.80;99.90
55004;DHT22;40900;52.710;6.438;2023-01-19T07:33:20;2.80;99.90
55004;DHT22;40900;52.710;6.438;2023-01-19T07:35:50;2.80;99.90
55004;DHT22;40900;52.710;6.438;2023-01-19T07:38:17;2.90;99.90
55004;DHT22;40900;52.710;6.438;2023-01-19T07:40:43;2.80;99.90
55004;DHT22;40900;52.710;6.438;2023-01-19T07:43:11;2.70;99.90
55004;DHT22;40900;52.710;6.438;2023-01-19T07:45:40;2.70;99.90
55004;DHT22;40900;52.710;6.438;2023-01-19T07:48:06;2.80;99.90
55004;DHT22;40900;52.710;6.438;2023-01-19T07:50:32;2.70;99.90
55004;DHT22;40900;52.710;6.438;2023-01-19T07:53:06;2.70;99.90
55004;DHT22;40900;52.710;6.438;2023-01-19T07:55:33;2.60;99.90
55004;DHT22;40900;52.710;6.438;2023-01-19T07:57:59;2.70;99.90
55004;DHT22;40900;52.710;6.438;2023-01-19T08:00:24;2.70;99.90
55004;DHT22;40900;52.710;6.438;2023-01-19T08:02:58;2.70;99.90
55004;DHT22;40900;52.710;6.438;2023-01-19T08:05:24;2.80;99.90
55004;DHT22;40900;52.710;6.438;2023-01-19T08:07:54;2.80;99.90
55004;DHT22;40900;52.710;6.438;2023-01-19T08:10:24;2.90;99.90
55004;DHT22;40900;52.710;6.438;2023-01-19T08:12:55;2.90;99.90
55004;DHT22;40900;52.710;6.438;2023-01-19T08:15:27;2.90;99.90
55004;DHT22;40900;52.710;6.438;2023-01-19T08:18:01;2.90;99.90
55004;DHT22;40900;52.710;6.438;2023-01-19T08:20:28;2.90;99.90
55004;DHT22;40900;52.710;6.438;2023-01-19T08:22:54;3.00;99.90
55004;DHT22;40900;52.710;6.438;2023-01-19T08:25:36;3.00;99.90
55004;DHT22;40900;52.710;6.438;2023-01-19T08:28:04;3.00;99.90
55004;DHT22;40900;52.710;6.438;2023-01-19T08:30:31;3.00;99.90
55004;DHT22;40900;52.710;6.438;2023-01-19T08:32:58;3.10;99.90
55004;DHT22;40900;52.710;6.438;2023-01-19T08:35:38;3.10;99.90
55004;DHT22;40900;52.710;6.438;2023-01-19T08:38:06;3.10;99.90
55004;DHT22;40900;52.710;6.438;2023-01-19T08:40:36;3.10;99.90
55004;DHT22;40900;52.710;6.438;2023-01-19T08:43:06;3.00;99.90
55004;DHT22;40900;52.710;6.438;2023-01-19T08:45:40;3.10;99.90
55004;DHT22;40900;52.710;6.438;2023-01-19T08:48:15;3.00;99.90
55004;DHT22;40900;52.710;6.438;2023-01-19T08:50:44;3.00;99.90
55004;DHT22;40900;52.710;6.438;2023-01-19T08:53:10;3.10;99.90
55004;DHT22;40900;52.710;6.438;2023-01-19T08:55:37;3.10;99.90
55004;DHT22;40900;52.710;6.438;2023-01-19T08:58:04;3.10;99.90
55004;DHT22;40900;52.710;6.438;2023-01-19T09:00:30;3.00;99.90
55004;DHT22;40900;52.710;6.438;2023-01-19T09:03:01;3.10;99.90
55004;DHT22;40900;52.710;6.438;2023-01-19T09:05:32;3.10;99.90
55004;DHT22;40900;52.710;6.438;2023-01-19T09:08:02;3.00;99.90
55004;DHT22;40900;52.710;6.438;2023-01-19T09:10:29;3.00;99.90
55004;DHT22;40900;52.710;6.438;2023-01-19T09:13:03;3.00;99.90
55004;DHT22;40900;52.710;6.438;2023-01-19T09:15:33;3.10;99.90
55004;DHT22;40900;52.710;6.438;2023-01-19T09:18:04;3.10;99.90
55004;DHT22;40900;52.710;6.438;2023-01-19T09:20:30;3.20;99.90
55004;DHT22;40900;52.710;6.438;2023-01-19T09:23:01;3.30;99.90
55004;DHT22;40900;52.710;6.438;2023-01-19T09:25:26;3.40;99.90
55004;DHT22;40900;52.710;6.438;2023-01-19T09:27:52;3.30;99.90
55004;DHT22;40900;52.710;6.438;2023-01-19T09:30:18;3.40;99.90
55004;DHT22;40900;52.710;6.438;2023-01-19T09:32:44;3.50;99.90
55004;DHT22;40900;52.710;6.438;2023-01-19T09:35:10;3.60;99.90
55004;DHT22;40900;52.710;6.438;2023-01-19T09:37:36;3.70;99.90
55004;DHT22;40900;52.710;6.438;2023-01-19T09:40:03;3.70;99.90
55004;DHT22;40900;52.710;6.438;2023-01-19T09:42:39;3.80;99.90
55004;DHT22;40900;52.710;6.438;2023-01-19T09:45:14;3.80;99.90
55004;DHT22;40900;52.710;6.438;2023-01-19T09:47:42;3.90;99.90
55004;DHT22;40900;52.710;6.438;2023-01-19T09:50:26;4.00;99.90
55004;DHT22;40900;52.710;6.438;2023-01-19T09:52:59;4.00;99.90
55004;DHT22;40900;52.710;6.438;2023-01-19T09:55:29;4.10;99.90
55004;DHT22;40900;52.710;6.438;2023-01-19T09:57:55;4.10;99.90
55004;DHT22;40900;52.710;6.438;2023-01-19T10:00:21;4.20;99.90
55004;DHT22;40900;52.710;6.438;2023-01-19T10:03:09;4.30;99.90
55004;DHT22;40900;52.710;6.438;2023-01-19T10:05:50;4.40;99.90
55004;DHT22;40900;52.710;6.438;2023-01-19T10:08:46;4.40;99.90
55004;DHT22;40900;52.710;6.438;2023-01-19T10:11:41;4.50;99.90
55004;DHT22;40900;52.710;6.438;2023-01-19T10:14:17;4.60;99.90
55004;DHT22;40900;52.710;6.438;2023-01-19T10:17:12;4.70;99.90
55004;DHT22;40900;52.710;6.438;2023-01-19T10:19:45;4.90;99.90
55004;DHT22;40900;52.710;6.438;2023-01-19T10:22:20;5.10;99.90
55004;DHT22;40900;52.710;6.438;2023-01-19T10:24:56;5.80;99.90
55004;DHT22;40900;52.710;6.438;2023-01-19T10:27:27;6.80;99.90
55004;DHT22;40900;52.710;6.438;2023-01-19T10:29:54;8.30;99.90
55004;DHT22;40900;52.710;6.438;2023-01-19T10:32:26;9.50;99.90
55004;DHT22;40900;52.710;6.438;2023-01-19T10:34:55;10.10;99.90
55004;DHT22;40900;52.710;6.438;2023-01-19T10:37:35;11.10;99.90
55004;DHT22;40900;52.710;6.438;2023-01-19T10:42:39;11.80;99.90
55004;DHT22;40900;52.710;6.438;2023-01-19T10:45:28;11.90;99.90
55004;DHT22;40900;52.710;6.438;2023-01-19T10:47:59;12.10;99.90
55004;DHT22;40900;52.710;6.438;2023-01-19T10:50:33;12.30;99.90
55004;DHT22;40900;52.710;6.438;2023-01-19T10:53:03;12.20;99.90
55004;DHT22;40900;52.710;6.438;2023-01-19T10:57:56;13.00;99.90
55004;DHT22;40900;52.710;6.438;2023-01-19T11:00:48;13.40;99.90
55004;DHT22;40900;52.710;6.438;2023-01-19T11:03:21;14.00;99.90
55004;DHT22;40900;52.710;6.438;2023-01-19T11:05:47;13.80;99.90
55004;DHT22;40900;52.710;6.438;2023-01-19T11:08:29;14.10;99.90
55004;DHT22;40900;52.710;6.438;2023-01-19T11:11:04;14.50;99.90
55004;DHT22;40900;52.710;6.438;2023-01-19T11:13:32;14.90;99.90
55004;DHT22;40900;52.710;6.438;2023-01-19T11:16:05;15.10;99.90
55004;DHT22;40900;52.710;6.438;2023-01-19T11:18:36;15.60;99.90
55004;DHT22;40900;52.710;6.438;2023-01-19T11:21:14;14.90;99.30
55004;DHT22;40900;52.710;6.438;2023-01-19T11:23:49;15.70;99.90
55004;DHT22;40900;52.710;6.438;2023-01-19T11:26:33;15.70;99.90
55004;DHT22;40900;52.710;6.438;2023-01-19T11:29:10;15.80;99.90
55004;DHT22;40900;52.710;6.438;2023-01-19T11:31:40;16.20;99.90
55004;DHT22;40900;52.710;6.438;2023-01-19T11:34:33;15.00;99.90
55004;DHT22;40900;52.710;6.438;2023-01-19T11:37:02;13.70;99.90
55004;DHT22;40900;52.710;6.438;2023-01-19T11:39:30;12.10;99.90
55004;DHT22;40900;52.710;6.438;2023-01-19T11:42:02;11.60;99.90
55004;DHT22;40900;52.710;6.438;2023-01-19T11:47:13;9.70;99.90
55004;DHT22;40900;52.710;6.438;2023-01-19T11:52:26;9.20;99.90
55004;DHT22;40900;52.710;6.438;2023-01-19T11:55:24;8.70;99.90
55004;DHT22;40900;52.710;6.438;2023-01-19T11:57:53;8.60;99.90
55004;DHT22;40900;52.710;6.438;2023-01-19T12:00:41;8.50;99.90
55004;DHT22;40900;52.710;6.438;2023-01-19T12:03:33;8.20;99.90
55004;DHT22;40900;52.710;6.438;2023-01-19T12:06:18;8.20;99.90
55004;DHT22;40900;52.710;6.438;2023-01-19T12:08:45;8.10;99.90
55004;DHT22;40900;52.710;6.438;2023-01-19T12:11:17;7.80;99.90
55004;DHT22;40900;52.710;6.438;2023-01-19T12:13:45;7.70;99.90
55004;DHT22;40900;52.710;6.438;2023-01-19T12:16:22;7.60;99.90
55004;DHT22;40900;52.710;6.438;2023-01-19T12:18:57;7.50;99.90
55004;DHT22;40900;52.710;6.438;2023-01-19T12:21:23;7.50;99.90
55004;DHT22;40900;52.710;6.438;2023-01-19T12:24:04;7.40;99.90
55004;DHT22;40900;52.710;6.438;2023-01-19T12:26:37;7.20;99.90
55004;DHT22;40900;52.710;6.438;2023-01-19T12:29:16;7.20;99.90
55004;DHT22;40900;52.710;6.438;2023-01-19T12:31:42;7.10;99.90
55004;DHT22;40900;52.710;6.438;2023-01-19T12:34:27;7.10;99.90
55004;DHT22;40900;52.710;6.438;2023-01-19T12:37:03;7.00;99.90
55004;DHT22;40900;52.710;6.438;2023-01-19T12:39:31;7.10;99.90
55004;DHT22;40900;52.710;6.438;2023-01-19T12:42:12;7.10;99.90
55004;DHT22;40900;52.710;6.438;2023-01-19T12:44:38;7.00;99.90
55004;DHT22;40900;52.710;6.438;2023-01-19T12:49:45;7.10;99.90
55004;DHT22;40900;52.710;6.438;2023-01-19T12:57:39;6.40;99.90
55004;DHT22;40900;52.710;6.438;2023-01-19T13:00:27;6.20;99.90
55004;DHT22;40900;52.710;6.438;2023-01-19T13:13:27;6.60;99.90
55004;DHT22;40900;52.710;6.438;2023-01-19T13:18:59;6.30;99.90
55004;DHT22;40900;52.710;6.438;2023-01-19T13:21:34;6.40;99.90
55004;DHT22;40900;52.710;6.438;2023-01-19T13:26:39;6.30;99.90
55004;DHT22;40900;52.710;6.438;2023-01-19T13:29:12;6.20;99.90
55004;DHT22;40900;52.710;6.438;2023-01-19T13:31:41;6.00;99.90
55004;DHT22;40900;52.710;6.438;2023-01-19T13:34:14;6.00;99.90
55004;DHT22;40900;52.710;6.438;2023-01-19T13:36:44;6.00;99.90
55004;DHT22;40900;52.710;6.438;2023-01-19T13:39:17;6.00;99.90
55004;DHT22;40900;52.710;6.438;2023-01-19T13:41:46;6.00;99.90
55004;DHT22;40900;52.710;6.438;2023-01-19T13:44:23;6.00;99.90
55004;DHT22;40900;52.710;6.438;2023-01-19T13:46:51;6.00;99.90
55004;DHT22;40900;52.710;6.438;2023-01-19T13:54:31;5.90;99.90
55004;DHT22;40900;52.710;6.438;2023-01-19T13:56:57;6.00;99.90
55004;DHT22;40900;52.710;6.438;2023-01-19T13:59:23;6.00;99.90
55004;DHT22;40900;52.710;6.438;2023-01-19T14:01:49;6.10;99.90
55004;DHT22;40900;52.710;6.438;2023-01-19T14:04:29;6.10;99.90
55004;DHT22;40900;52.710;6.438;2023-01-19T14:07:01;6.00;99.90
55004;DHT22;40900;52.710;6.438;2023-01-19T14:09:27;6.00;99.90
55004;DHT22;40900;52.710;6.438;2023-01-19T14:12:09;5.90;99.90
55004;DHT22;40900;52.710;6.438;2023-01-19T14:14:36;5.90;99.90
55004;DHT22;40900;52.710;6.438;2023-01-19T14:17:02;5.80;99.90
55004;DHT22;40900;52.710;6.438;2023-01-19T14:19:28;5.80;99.90
55004;DHT22;40900;52.710;6.438;2023-01-19T14:22:02;5.80;99.90
55004;DHT22;40900;52.710;6.438;2023-01-19T14:24:29;5.80;99.90
55004;DHT22;40900;52.710;6.438;2023-01-19T14:27:21;5.70;99.90
55004;DHT22;40900;52.710;6.438;2023-01-19T14:29:48;5.70;99.90
55004;DHT22;40900;52.710;6.438;2023-01-19T14:32:16;5.80;99.90
55004;DHT22;40900;52.710;6.438;2023-01-19T14:34:46;5.70;99.90
55004;DHT22;40900;52.710;6.438;2023-01-19T14:37:22;5.80;99.90
55004;DHT22;40900;52.710;6.438;2023-01-19T14:39:55;5.80;99.90
55004;DHT22;40900;52.710;6.438;2023-01-19T14:42:31;5.80;99.90
55004;DHT22;40900;52.710;6.438;2023-01-19T14:44:59;5.80;99.90
55004;DHT22;40900;52.710;6.438;2023-01-19T14:47:52;5.70;99.90
55004;DHT22;40900;52.710;6.438;2023-01-19T14:50:20;5.70;99.90
55004;DHT22;40900;52.710;6.438;2023-01-19T14:53:15;5.50;99.90
55004;DHT22;40900;52.710;6.438;2023-01-19T14:58:20;5.30;99.90
55004;DHT22;40900;52.710;6.438;2023-01-19T15:00:47;5.20;99.90
55004;DHT22;40900;52.710;6.438;2023-01-19T15:03:14;5.20;99.90
55004;DHT22;40900;52.710;6.438;2023-01-19T15:05:45;5.20;99.90
55004;DHT22;40900;52.710;6.438;2023-01-19T15:08:14;5.10;99.90
55004;DHT22;40900;52.710;6.438;2023-01-19T15:10:41;5.10;99.90
55004;DHT22;40900;52.710;6.438;2023-01-19T15:13:17;5.10;99.90
55004;DHT22;40900;52.710;6.438;2023-01-19T15:15:43;5.10;99.90
55004;DHT22;40900;52.710;6.438;2023-01-19T15:18:13;5.20;99.90
55004;DHT22;40900;52.710;6.438;2023-01-19T15:20:40;5.20;99.90
55004;DHT22;40900;52.710;6.438;2023-01-19T15:23:05;5.20;99.90
55004;DHT22;40900;52.710;6.438;2023-01-19T15:25:31;5.20;99.90
55004;DHT22;40900;52.710;6.438;2023-01-19T15:27:58;5.20;99.90
55004;DHT22;40900;52.710;6.438;2023-01-19T15:30:26;5.10;99.90
55004;DHT22;40900;52.710;6.438;2023-01-19T15:32:58;5.00;99.90
55004;DHT22;40900;52.710;6.438;2023-01-19T15:35:24;5.00;99.90
55004;DHT22;40900;52.710;6.438;2023-01-19T15:37:51;5.00;99.90
55004;DHT22;40900;52.710;6.438;2023-01-19T15:40:18;4.90;99.90
55004;DHT22;40900;52.710;6.438;2023-01-19T15:42:44;4.80;99.90
55004;DHT22;40900;52.710;6.438;2023-01-19T15:45:41;4.80;99.90
55004;DHT22;40900;52.710;6.438;2023-01-19T15:48:10;4.70;99.90
55004;DHT22;40900;52.710;6.438;2023-01-19T15:50:38;4.60;99.90
55004;DHT22;40900;52.710;6.438;2023-01-19T15:53:05;4.60;99.90
55004;DHT22;40900;52.710;6.438;2023-01-19T15:55:31;4.60;99.90
55004;DHT22;40900;52.710;6.438;2023-01-19T15:57:57;4.50;99.90
55004;DHT22;40900;52.710;6.438;2023-01-19T16:00:30;4.40;99.90
55004;DHT22;40900;52.710;6.438;2023-01-19T16:02:57;4.50;99.90
55004;DHT22;40900;52.710;6.438;2023-01-19T16:05:23;4.40;99.90
55004;DHT22;40900;52.710;6.438;2023-01-19T16:07:49;4.30;99.90
55004;DHT22;40900;52.710;6.438;2023-01-19T16:10:16;4.30;99.90
55004;DHT22;40900;52.710;6.438;2023-01-19T16:12:43;4.30;99.90
55004;DHT22;40900;52.710;6.438;2023-01-19T16:15:10;4.30;99.90
55004;DHT22;40900;52.710;6.438;2023-01-19T16:17:36;4.40;99.90
55004;DHT22;40900;52.710;6.438;2023-01-19T16:20:05;4.40;99.90
55004;DHT22;40900;52.710;6.438;2023-01-19T16:22:31;4.30;99.90
55004;DHT22;40900;52.710;6.438;2023-01-19T16:24:57;4.30;99.90
55004;DHT22;40900;52.710;6.438;2023-01-19T16:27:23;4.30;99.90
55004;DHT22;40900;52.710;6.438;2023-01-19T16:29:49;4.30;99.90
55004;DHT22;40900;52.710;6.438;2023-01-19T16:32:15;4.30;99.90
55004;DHT22;40900;52.710;6.438;2023-01-19T16:34:41;4.40;99.90
55004;DHT22;40900;52.710;6.438;2023-01-19T16:37:07;4.30;99.90
55004;DHT22;40900;52.710;6.438;2023-01-19T16:39:33;4.30;99.90
55004;DHT22;40900;52.710;6.438;2023-01-19T16:41:59;4.20;99.90
55004;DHT22;40900;52.710;6.438;2023-01-19T16:44:24;4.20;99.90
55004;DHT22;40900;52.710;6.438;2023-01-19T16:46:50;4.10;99.90
55004;DHT22;40900;52.710;6.438;2023-01-19T16:49:21;4.00;99.90
55004;DHT22;40900;52.710;6.438;2023-01-19T16:51:48;3.90;99.90
55004;DHT22;40900;52.710;6.438;2023-01-19T16:54:17;3.90;99.90
55004;DHT22;40900;52.710;6.438;2023-01-19T16:56:47;3.80;99.90
55004;DHT22;40900;52.710;6.438;2023-01-19T16:59:15;3.70;99.90
55004;DHT22;40900;52.710;6.438;2023-01-19T17:01:41;3.60;99.90
55004;DHT22;40900;52.710;6.438;2023-01-19T17:04:10;3.50;99.90